Bursa, Turkey
Current Conditions -  °F | °C
As of 5:50 PM on Friday 19 Dec 2014 (Local Time) from LTBR Reporting Station
Clear Clear  
Wind Chill: 46°   Ceiling: Unl
Heat Index: 48°   Visibility: 6mi
Dew Point: 45°   Wind: 5mph
Humidity: 87%   Direction: 210°SSW
Pressure: 30.15"   Gusts: NA
Location:  40.2°N, 29.08°E
Report Text: LTBR 191450Z 21004KT CAVOK 09/07 Q1021 NOSIG
Loading
Personal Weather Stations






























Interactive Weather Map New forecast layout! Learn more

10-Day Weather Forecast

Advertisements
Track Severe Weather on mobile